createdAt,value
2022-12-31T00:01:44.882Z,100079.41
2022-12-31T00:04:11.236Z,100078.41
2022-12-31T00:06:37.587Z,100069.00
2022-12-31T00:09:06.621Z,100067.53
2022-12-31T00:11:34.001Z,100068.03
2022-12-31T00:14:00.310Z,100075.28
2022-12-31T00:16:30.412Z,100061.69
2022-12-31T00:18:59.253Z,100061.69
2022-12-31T00:21:27.581Z,100061.34
2022-12-31T00:23:54.198Z,100056.97
2022-12-31T00:26:24.665Z,100069.97
2022-12-31T00:28:52.651Z,100060.00
2022-12-31T00:31:24.792Z,100067.63
2022-12-31T00:33:51.918Z,100077.91
2022-12-31T00:36:38.849Z,100079.94
2022-12-31T00:39:08.441Z,100073.72
2022-12-31T00:41:34.998Z,100075.41
2022-12-31T00:44:01.692Z,100082.00
2022-12-31T00:46:28.083Z,100088.22
2022-12-31T00:48:54.458Z,100092.09
2022-12-31T00:51:23.792Z,100096.09
2022-12-31T00:53:50.290Z,100087.41
2022-12-31T00:56:21.665Z,100088.91
2022-12-31T00:58:50.000Z,100099.69
2022-12-31T01:01:31.837Z,100104.59
2022-12-31T01:04:05.535Z,100106.97
2022-12-31T01:06:59.772Z,100109.66
2022-12-31T01:09:26.787Z,100100.53
2022-12-31T01:11:53.118Z,100108.47
2022-12-31T01:14:20.407Z,100116.09
2022-12-31T01:16:49.475Z,100108.00
2022-12-31T01:19:21.688Z,100102.63
2022-12-31T01:21:49.433Z,100114.06
2022-12-31T01:24:16.096Z,100125.38
2022-12-31T01:26:42.711Z,100117.50
2022-12-31T01:29:10.095Z,100113.19
2022-12-31T01:31:37.975Z,100134.41
2022-12-31T01:34:05.475Z,100149.59
2022-12-31T01:36:33.547Z,100135.63
2022-12-31T01:39:02.805Z,100152.00
2022-12-31T01:41:35.706Z,100154.38
2022-12-31T01:44:03.743Z,100155.38
2022-12-31T01:47:01.059Z,100145.09
2022-12-31T01:49:40.864Z,100129.06
2022-12-31T01:52:15.626Z,100143.41
2022-12-31T01:54:47.683Z,100134.31
2022-12-31T01:57:15.630Z,100137.19
2022-12-31T01:59:43.231Z,100142.91
2022-12-31T02:02:10.102Z,100141.38
2022-12-31T02:04:36.466Z,100135.81
2022-12-31T02:07:06.747Z,100144.59
2022-12-31T02:09:35.619Z,100128.72
2022-12-31T02:12:02.025Z,100131.28
2022-12-31T02:14:32.128Z,100129.09
2022-12-31T02:17:06.557Z,100124.34
2022-12-31T02:20:07.433Z,100129.44
2022-12-31T02:23:11.164Z,100127.88
2022-12-31T02:25:58.411Z,100122.66
2022-12-31T02:28:43.736Z,100127.72
2022-12-31T02:31:29.245Z,100133.47
2022-12-31T02:34:27.555Z,100136.50
2022-12-31T02:36:58.215Z,100138.19
2022-12-31T02:39:24.656Z,100121.66
2022-12-31T02:41:52.036Z,100129.44
2022-12-31T02:44:25.339Z,100132.13
2022-12-31T02:47:06.661Z,100141.56
2022-12-31T02:49:32.917Z,100128.91
2022-12-31T02:52:10.625Z,100146.63
2022-12-31T02:55:07.262Z,100149.81
2022-12-31T02:57:53.018Z,100146.09
2022-12-31T03:00:38.647Z,100161.28
2022-12-31T03:03:07.537Z,100162.81
2022-12-31T03:05:39.046Z,100161.63
2022-12-31T03:08:05.485Z,100167.19
2022-12-31T03:10:31.824Z,100163.47
2022-12-31T03:12:58.580Z,100160.78
2022-12-31T03:15:30.663Z,100153.72
2022-12-31T03:18:06.383Z,100146.63
2022-12-31T03:20:58.579Z,100147.97
2022-12-31T03:23:30.059Z,100160.28
2022-12-31T03:25:57.599Z,100158.09
2022-12-31T03:28:26.534Z,100158.75
2022-12-31T03:30:56.267Z,100158.09
2022-12-31T03:33:23.819Z,100164.69
2022-12-31T03:35:51.569Z,100160.28
2022-12-31T03:38:19.070Z,100150.00
2022-12-31T03:40:51.514Z,100165.00
2022-12-31T03:43:19.484Z,100164.81
2022-12-31T03:45:53.579Z,100166.34
2022-12-31T03:48:22.576Z,100170.56
2022-12-31T03:50:49.865Z,100165.84
2022-12-31T03:53:16.865Z,100170.56
2022-12-31T03:55:43.374Z,100181.69
2022-12-31T03:58:09.660Z,100177.66
2022-12-31T04:00:36.135Z,100177.16
2022-12-31T04:03:02.459Z,100186.25
2022-12-31T04:05:28.854Z,100182.03
2022-12-31T04:07:55.743Z,100176.47
2022-12-31T04:10:25.086Z,100195.53
2022-12-31T04:12:51.429Z,100205.97
2022-12-31T04:15:20.274Z,100201.59
2022-12-31T04:17:47.598Z,100200.09
2022-12-31T04:20:14.589Z,100208.69
2022-12-31T04:22:40.932Z,100215.44
2022-12-31T04:25:11.283Z,100226.06
2022-12-31T04:27:43.440Z,100223.19
2022-12-31T04:30:11.968Z,100216.94
2022-12-31T04:32:38.357Z,100219.16
2022-12-31T04:35:05.162Z,100213.22
2022-12-31T04:37:31.529Z,100219.34
2022-12-31T04:40:03.527Z,100223.72
2022-12-31T04:42:32.067Z,100223.72
2022-12-31T04:44:58.455Z,100231.81
2022-12-31T04:47:24.788Z,100230.44
2022-12-31T04:49:51.310Z,100226.06
2022-12-31T04:52:17.753Z,100225.56
2022-12-31T04:54:44.252Z,100229.94
2022-12-31T04:57:10.601Z,100231.94
2022-12-31T04:59:36.992Z,100245.16
2022-12-31T05:02:03.547Z,100241.06
2022-12-31T05:04:30.145Z,100243.97
2022-12-31T05:06:56.503Z,100252.41
2022-12-31T05:09:24.147Z,100251.72
2022-12-31T05:11:50.784Z,100252.72
2022-12-31T05:14:17.225Z,100251.22
2022-12-31T05:16:43.639Z,100253.25
2022-12-31T05:19:10.300Z,100256.81
2022-12-31T05:21:36.978Z,100257.63
2022-12-31T05:24:03.456Z,100257.63
2022-12-31T05:26:30.066Z,100257.28
2022-12-31T05:28:56.502Z,100260.66
2022-12-31T05:31:23.036Z,100253.38
2022-12-31T05:33:49.367Z,100266.22
2022-12-31T05:36:15.733Z,100259.69
2022-12-31T05:38:42.183Z,100245.81
2022-12-31T05:41:08.553Z,100258.78
2022-12-31T05:43:35.114Z,100249.66
2022-12-31T05:46:03.054Z,100253.06
2022-12-31T05:48:29.956Z,100250.56
2022-12-31T05:50:56.315Z,100256.94
2022-12-31T05:53:22.979Z,100249.19
2022-12-31T05:55:50.096Z,100248.31
2022-12-31T05:58:16.537Z,100250.00
2022-12-31T06:00:42.997Z,100246.13
2022-12-31T06:03:09.833Z,100255.97
2022-12-31T06:05:39.645Z,100255.78
2022-12-31T06:08:06.010Z,100272.16
2022-12-31T06:10:32.325Z,100268.91
2022-12-31T06:12:58.659Z,100270.78
2022-12-31T06:15:25.006Z,100262.88
2022-12-31T06:17:51.343Z,100264.72
2022-12-31T06:20:17.833Z,100256.09
2022-12-31T06:22:44.204Z,100262.19
2022-12-31T06:25:10.603Z,100282.13
2022-12-31T06:27:36.995Z,100282.28
2022-12-31T06:30:03.912Z,100278.06
2022-12-31T06:32:30.308Z,100288.03
2022-12-31T06:34:56.604Z,100292.75
2022-12-31T06:37:22.918Z,100301.00
2022-12-31T06:39:49.261Z,100295.78
2022-12-31T06:42:15.524Z,100301.19
2022-12-31T06:44:41.850Z,100308.59
2022-12-31T06:47:08.172Z,100314.53
2022-12-31T06:49:34.477Z,100303.88
2022-12-31T06:52:00.812Z,100320.59
2022-12-31T06:54:27.140Z,100315.38
2022-12-31T06:56:53.777Z,100319.06
2022-12-31T06:59:27.897Z,100300.66
2022-12-31T07:02:13.187Z,100305.22
2022-12-31T07:05:03.852Z,100311.66
2022-12-31T07:07:52.554Z,100318.91
2022-12-31T07:10:33.424Z,100318.22
2022-12-31T07:13:31.587Z,100314.00
2022-12-31T07:16:19.006Z,100311.97
2022-12-31T07:18:51.784Z,100312.69
2022-12-31T07:21:28.378Z,100316.03
2022-12-31T07:23:55.026Z,100335.63
2022-12-31T07:26:57.060Z,100348.78
2022-12-31T07:29:37.798Z,100353.00
2022-12-31T07:32:39.067Z,100353.34
2022-12-31T07:35:16.897Z,100362.28
2022-12-31T07:38:01.497Z,100354.53
2022-12-31T07:40:51.546Z,100352.84
2022-12-31T07:43:29.399Z,100352.19
2022-12-31T07:46:33.367Z,100349.31
2022-12-31T07:49:00.005Z,100350.66
2022-12-31T07:51:26.757Z,100355.06
2022-12-31T07:53:53.167Z,100352.84
2022-12-31T07:56:19.651Z,100354.72
2022-12-31T07:59:14.666Z,100350.63
2022-12-31T08:01:56.644Z,100356.72
2022-12-31T08:04:42.115Z,100362.63
2022-12-31T08:07:28.593Z,100362.13
2022-12-31T08:10:09.109Z,100365.13
2022-12-31T08:12:40.895Z,100383.41
2022-12-31T08:15:15.372Z,100387.59
2022-12-31T08:17:42.478Z,100401.63
2022-12-31T08:20:16.619Z,100389.25
2022-12-31T08:23:00.181Z,100396.19
2022-12-31T08:25:42.921Z,100392.09
2022-12-31T08:28:46.770Z,100405.47
2022-12-31T08:31:33.332Z,100417.00
2022-12-31T08:34:26.594Z,100418.34
2022-12-31T08:37:03.204Z,100411.41
2022-12-31T08:39:41.547Z,100406.50
2022-12-31T08:42:25.667Z,100411.38
2022-12-31T08:45:13.078Z,100419.69
2022-12-31T08:47:47.561Z,100423.72
2022-12-31T08:50:17.166Z,100413.78
2022-12-31T08:52:43.861Z,100419.19
2022-12-31T08:55:16.262Z,100426.44
2022-12-31T08:58:01.761Z,100426.94
2022-12-31T09:00:30.176Z,100423.25
2022-12-31T09:03:19.991Z,100432.69
2022-12-31T09:05:48.940Z,100439.28
2022-12-31T09:08:44.380Z,100435.56
2022-12-31T09:11:19.164Z,100441.63
2022-12-31T09:14:21.159Z,100433.88
2022-12-31T09:17:03.514Z,100437.59
2022-12-31T09:19:29.926Z,100428.97
2022-12-31T09:21:56.464Z,100430.31
2022-12-31T09:24:23.052Z,100441.63
2022-12-31T09:26:56.796Z,100441.50
2022-12-31T09:29:39.885Z,100440.09
2022-12-31T09:32:26.016Z,100432.53
2022-12-31T09:35:03.842Z,100432.88
2022-12-31T09:37:46.272Z,100429.16
2022-12-31T09:40:36.751Z,100436.22
2022-12-31T09:43:21.759Z,100442.00
2022-12-31T09:46:18.694Z,100447.41
2022-12-31T09:49:09.011Z,100460.56
2022-12-31T09:51:38.215Z,100454.66
2022-12-31T09:54:17.912Z,100459.25
2022-12-31T09:56:59.172Z,100447.91
2022-12-31T09:59:45.344Z,100457.03
2022-12-31T10:02:30.595Z,100453.50
2022-12-31T10:05:25.064Z,100459.75
2022-12-31T10:08:14.720Z,100457.56
2022-12-31T10:11:02.908Z,100461.44
2022-12-31T10:13:37.971Z,100460.13
2022-12-31T10:16:23.153Z,100461.28
2022-12-31T10:19:12.848Z,100454.53
2022-12-31T10:22:13.831Z,100470.09
2022-12-31T10:25:01.998Z,100474.47
2022-12-31T10:27:43.411Z,100470.75
2022-12-31T10:30:17.493Z,100466.50
2022-12-31T10:32:45.902Z,100466.19
2022-12-31T10:35:36.851Z,100461.81
2022-12-31T10:38:34.363Z,100465.53
2022-12-31T10:41:19.497Z,100468.34
2022-12-31T10:43:51.814Z,100475.78
2022-12-31T10:46:43.026Z,100475.78
2022-12-31T10:49:47.097Z,100460.47
2022-12-31T10:52:24.117Z,100464.13
2022-12-31T10:55:08.973Z,100452.56
2022-12-31T10:58:12.515Z,100454.03
2022-12-31T11:00:54.060Z,100461.19
2022-12-31T11:03:28.970Z,100455.75
2022-12-31T11:06:04.897Z,100459.75
2022-12-31T11:09:08.983Z,100466.28
2022-12-31T11:11:47.871Z,100463.63
2022-12-31T11:14:56.191Z,100470.38
2022-12-31T11:17:34.391Z,100469.41
2022-12-31T11:20:27.748Z,100473.63
2022-12-31T11:23:04.393Z,100470.31
2022-12-31T11:25:49.602Z,100473.81
2022-12-31T11:28:33.442Z,100471.59
2022-12-31T11:31:19.935Z,100458.91
2022-12-31T11:34:24.955Z,100462.31
2022-12-31T11:37:27.500Z,100461.63
2022-12-31T11:40:42.124Z,100456.66
2022-12-31T11:43:26.705Z,100459.84
2022-12-31T11:46:34.741Z,100451.50
2022-12-31T11:49:12.887Z,100444.47
2022-12-31T11:52:02.177Z,100438.28
2022-12-31T11:54:43.383Z,100449.34
2022-12-31T11:57:17.320Z,100440.41
2022-12-31T11:59:43.877Z,100452.59
2022-12-31T12:02:24.388Z,100456.00
2022-12-31T12:04:51.413Z,100456.16
2022-12-31T12:07:18.661Z,100451.63
2022-12-31T12:09:45.941Z,100446.00
2022-12-31T12:12:13.272Z,100458.56
2022-12-31T12:14:42.487Z,100462.13
2022-12-31T12:17:15.027Z,100449.41
2022-12-31T12:19:44.971Z,100446.16
2022-12-31T12:22:14.190Z,100454.63
2022-12-31T12:24:51.350Z,100444.81
2022-12-31T12:27:27.287Z,100444.22
2022-12-31T12:29:53.870Z,100429.31
2022-12-31T12:32:26.979Z,100430.63
2022-12-31T12:34:53.736Z,100437.44
2022-12-31T12:37:34.464Z,100442.44
2022-12-31T12:40:09.288Z,100433.16
2022-12-31T12:42:35.775Z,100430.47
2022-12-31T12:45:07.554Z,100426.09
2022-12-31T12:47:34.816Z,100429.97
2022-12-31T12:50:01.412Z,100423.69
2022-12-31T12:52:49.316Z,100432.63
2022-12-31T12:55:22.700Z,100420.56
2022-12-31T12:57:58.097Z,100412.56
2022-12-31T13:00:29.644Z,100426.38
2022-12-31T13:03:14.884Z,100422.34
2022-12-31T13:05:56.995Z,100420.84
2022-12-31T13:08:23.375Z,100416.59
2022-12-31T13:11:25.814Z,100414.78
2022-12-31T13:14:17.045Z,100418.53
2022-12-31T13:16:46.726Z,100416.84
2022-12-31T13:19:19.479Z,100420.88
2022-12-31T13:21:50.459Z,100422.91
2022-12-31T13:24:40.925Z,100426.00
2022-12-31T13:27:28.669Z,100416.00
2022-12-31T13:29:59.445Z,100408.63
2022-12-31T13:32:38.822Z,100401.31
2022-12-31T13:35:21.988Z,100400.28
2022-12-31T13:37:49.804Z,100389.97
2022-12-31T13:40:30.379Z,100387.97
2022-12-31T13:43:12.631Z,100395.78
2022-12-31T13:45:43.140Z,100395.41
2022-12-31T13:48:18.091Z,100396.53
2022-12-31T13:50:52.153Z,100399.06
2022-12-31T13:53:26.918Z,100385.91
2022-12-31T13:56:02.075Z,100393.84
2022-12-31T13:58:35.701Z,100391.84
2022-12-31T14:01:14.953Z,100388.63
2022-12-31T14:04:15.432Z,100393.19
2022-12-31T14:06:55.454Z,100404.72
2022-12-31T14:09:31.398Z,100406.84
2022-12-31T14:12:18.199Z,100410.53
2022-12-31T14:15:06.017Z,100417.56
2022-12-31T14:17:59.106Z,100415.81
2022-12-31T14:21:06.757Z,100420.72
2022-12-31T14:23:46.583Z,100420.34
2022-12-31T14:26:27.254Z,100422.03
2022-12-31T14:29:18.907Z,100424.09
2022-12-31T14:31:48.019Z,100422.44
2022-12-31T14:34:20.828Z,100411.28
2022-12-31T14:37:14.853Z,100416.41
2022-12-31T14:39:55.369Z,100416.78
2022-12-31T14:42:37.496Z,100414.44
2022-12-31T14:45:23.408Z,100417.13
2022-12-31T14:48:04.736Z,100429.69
2022-12-31T14:50:33.842Z,100423.47
2022-12-31T14:53:00.129Z,100431.88
2022-12-31T14:55:31.881Z,100437.44
2022-12-31T15:00:59.240Z,100432.72
2022-12-31T15:03:31.544Z,100439.47
2022-12-31T15:06:25.759Z,100430.72
2022-12-31T15:09:39.598Z,100433.75
2022-12-31T15:12:39.407Z,100437.47
2022-12-31T15:15:12.192Z,100433.28
2022-12-31T15:18:16.283Z,100431.44
2022-12-31T15:21:18.139Z,100433.81
2022-12-31T15:23:46.029Z,100432.31
2022-12-31T15:26:24.790Z,100439.09
2022-12-31T15:28:59.574Z,100432.88
2022-12-31T15:31:26.597Z,100433.19
2022-12-31T15:34:01.031Z,100442.97
2022-12-31T15:36:30.522Z,100435.06
2022-12-31T15:39:11.957Z,100442.00
2022-12-31T15:42:03.005Z,100439.63
2022-12-31T15:44:49.931Z,100448.56
2022-12-31T15:47:31.019Z,100438.28
2022-12-31T15:50:01.861Z,100435.38
2022-12-31T15:52:39.253Z,100442.84
2022-12-31T15:55:06.991Z,100452.31
2022-12-31T15:57:38.763Z,100450.44
2022-12-31T16:00:16.813Z,100453.16
2022-12-31T16:02:44.217Z,100453.13
2022-12-31T16:05:19.754Z,100450.97
2022-12-31T16:07:46.526Z,100445.56
2022-12-31T16:10:23.722Z,100450.59
2022-12-31T16:12:50.226Z,100442.50
2022-12-31T16:15:22.988Z,100447.72
2022-12-31T16:17:59.260Z,100456.50
2022-12-31T16:20:30.195Z,100438.13
2022-12-31T16:22:57.823Z,100447.22
2022-12-31T16:25:33.074Z,100445.38
2022-12-31T16:28:03.102Z,100448.75
2022-12-31T16:30:32.157Z,100453.16
2022-12-31T16:33:06.648Z,100457.25
2022-12-31T16:35:36.313Z,100456.72
2022-12-31T16:38:18.577Z,100456.56
2022-12-31T16:41:03.492Z,100466.38
2022-12-31T16:43:30.874Z,100472.09
2022-12-31T16:46:07.028Z,100463.13
2022-12-31T16:48:33.501Z,100462.63
2022-12-31T16:50:59.884Z,100472.63
2022-12-31T16:53:27.667Z,100461.28
2022-12-31T16:55:59.722Z,100467.38
2022-12-31T16:58:31.115Z,100456.53
2022-12-31T17:01:16.189Z,100467.03
2022-12-31T17:03:47.288Z,100466.84
2022-12-31T17:06:19.907Z,100463.84
2022-12-31T17:09:04.783Z,100453.84
2022-12-31T17:11:33.354Z,100452.84
2022-12-31T17:14:10.310Z,100451.78
2022-12-31T17:16:57.755Z,100453.31
2022-12-31T17:19:46.983Z,100458.91
2022-12-31T17:22:29.826Z,100454.84
2022-12-31T17:25:06.163Z,100455.53
2022-12-31T17:27:34.037Z,100454.69
2022-12-31T17:30:35.139Z,100456.84
2022-12-31T17:33:08.781Z,100461.59
2022-12-31T17:35:37.296Z,100466.16
2022-12-31T17:38:21.744Z,100469.34
2022-12-31T17:41:06.423Z,100460.28
2022-12-31T17:43:37.779Z,100464.66
2022-12-31T17:46:13.488Z,100466.34
2022-12-31T17:48:40.977Z,100461.44
2022-12-31T17:51:07.496Z,100464.66
2022-12-31T17:53:34.213Z,100474.78
2022-12-31T17:56:06.171Z,100467.53
2022-12-31T17:58:38.294Z,100471.75
2022-12-31T18:01:06.581Z,100462.63
2022-12-31T18:03:33.094Z,100470.06
2022-12-31T18:05:59.616Z,100474.13
2022-12-31T18:08:26.013Z,100480.91
2022-12-31T18:10:53.877Z,100485.44
2022-12-31T18:13:24.017Z,100492.88
2022-12-31T18:15:50.899Z,100493.72
2022-12-31T18:18:26.211Z,100498.63
2022-12-31T18:20:54.499Z,100495.25
2022-12-31T18:23:26.080Z,100492.03
2022-12-31T18:25:52.407Z,100498.44
2022-12-31T18:28:19.185Z,100498.13
2022-12-31T18:30:47.008Z,100499.09
2022-12-31T18:33:19.757Z,100501.97
2022-12-31T18:36:08.176Z,100505.19
2022-12-31T18:38:33.549Z,100511.97
2022-12-31T18:40:59.976Z,100512.78
2022-12-31T18:43:26.630Z,100509.91
2022-12-31T18:45:53.340Z,100518.22
2022-12-31T18:48:19.873Z,100501.97
2022-12-31T18:50:47.341Z,100514.81
2022-12-31T18:53:20.489Z,100517.34
2022-12-31T18:55:57.345Z,100516.34
2022-12-31T18:58:24.022Z,100517.19
2022-12-31T19:00:51.371Z,100521.41
2022-12-31T19:03:23.709Z,100520.41
2022-12-31T19:05:51.210Z,100524.13
2022-12-31T19:08:19.094Z,100517.72
2022-12-31T19:10:46.272Z,100525.00
2022-12-31T19:13:13.975Z,100522.78
2022-12-31T19:15:46.885Z,100526.47
2022-12-31T19:18:13.293Z,100519.03
2022-12-31T19:20:40.920Z,100525.28
2022-12-31T19:23:14.738Z,100519.38
2022-12-31T19:25:41.076Z,100522.75
2022-12-31T19:28:28.613Z,100510.59
2022-12-31T19:30:54.993Z,100522.47
2022-12-31T19:33:21.581Z,100515.69
2022-12-31T19:35:48.542Z,100524.78
2022-12-31T19:38:26.049Z,100507.75
2022-12-31T19:40:53.524Z,100510.63
2022-12-31T19:43:21.761Z,100514.47
2022-12-31T19:45:49.585Z,100500.94
2022-12-31T19:48:32.022Z,100503.84
2022-12-31T19:50:59.582Z,100500.94
2022-12-31T19:53:27.557Z,100514.31
2022-12-31T19:55:54.189Z,100517.50
2022-12-31T19:58:25.180Z,100517.50
2022-12-31T20:00:58.219Z,100518.00
2022-12-31T20:03:28.421Z,100528.44
2022-12-31T20:06:09.501Z,100535.50
2022-12-31T20:08:37.814Z,100532.38
2022-12-31T20:11:11.573Z,100531.81
2022-12-31T20:13:38.901Z,100539.72
2022-12-31T20:16:10.228Z,100544.19
2022-12-31T20:18:38.209Z,100543.03
2022-12-31T20:21:08.625Z,100548.22
2022-12-31T20:23:35.070Z,100546.13
2022-12-31T20:26:01.903Z,100537.72
2022-12-31T20:28:28.346Z,100539.19
2022-12-31T20:30:54.783Z,100541.91
2022-12-31T20:33:21.306Z,100547.25
2022-12-31T20:35:47.679Z,100534.47
2022-12-31T20:38:14.028Z,100535.31
2022-12-31T20:40:46.367Z,100535.94
2022-12-31T20:43:13.338Z,100531.53
2022-12-31T20:45:41.071Z,100533.69
2022-12-31T20:48:07.489Z,100534.22
2022-12-31T20:50:33.761Z,100538.06
2022-12-31T20:53:00.121Z,100535.00
2022-12-31T20:55:27.285Z,100544.97
2022-12-31T20:57:53.587Z,100544.50
2022-12-31T21:00:19.982Z,100556.53
2022-12-31T21:02:53.817Z,100552.25
2022-12-31T21:05:24.186Z,100558.16
2022-12-31T21:07:50.692Z,100552.72
2022-12-31T21:10:17.095Z,100552.38
2022-12-31T21:12:43.450Z,100546.97
2022-12-31T21:15:11.640Z,100550.69
2022-12-31T21:17:38.090Z,100548.84
2022-12-31T21:20:05.503Z,100548.66
2022-12-31T21:22:33.679Z,100546.31
2022-12-31T21:25:01.452Z,100558.31
2022-12-31T21:27:29.119Z,100559.78
2022-12-31T21:30:17.798Z,100562.16
2022-12-31T21:32:42.123Z,100556.09
2022-12-31T21:35:41.074Z,100559.63
2022-12-31T21:37:59.215Z,100562.50
2022-12-31T21:40:27.149Z,100571.59
2022-12-31T21:42:53.694Z,100576.59
2022-12-31T21:45:20.014Z,100575.75
2022-12-31T21:48:04.985Z,100573.50
2022-12-31T21:50:32.604Z,100579.34
2022-12-31T21:52:59.210Z,100597.22
2022-12-31T21:55:43.976Z,100606.56
2022-12-31T21:58:27.611Z,100599.41
2022-12-31T22:01:14.747Z,100607.81
2022-12-31T22:03:41.617Z,100608.59
2022-12-31T22:06:12.304Z,100612.41
2022-12-31T22:08:40.089Z,100623.38
2022-12-31T22:11:06.870Z,100610.44
2022-12-31T22:13:34.049Z,100614.75
2022-12-31T22:16:05.154Z,100614.59
2022-12-31T22:18:34.901Z,100617.06
2022-12-31T22:21:19.547Z,100620.75
2022-12-31T22:23:52.183Z,100615.44
2022-12-31T22:26:21.565Z,100626.91
2022-12-31T22:28:48.357Z,100625.06
2022-12-31T22:31:17.984Z,100632.53
2022-12-31T22:33:45.059Z,100631.31
2022-12-31T22:36:14.592Z,100639.25
2022-12-31T22:38:41.013Z,100635.53
2022-12-31T22:41:10.084Z,100632.44
2022-12-31T22:43:39.584Z,100636.78
2022-12-31T22:46:21.102Z,100642.63
2022-12-31T22:48:48.192Z,100642.69
2022-12-31T22:51:15.766Z,100646.34
2022-12-31T22:53:43.307Z,100647.09
2022-12-31T22:56:12.149Z,100650.94
2022-12-31T22:58:38.497Z,100640.31
2022-12-31T23:01:15.014Z,100646.25
2022-12-31T23:03:42.211Z,100640.47
2022-12-31T23:06:08.581Z,100645.00
2022-12-31T23:08:34.925Z,100643.94
2022-12-31T23:11:01.482Z,100643.16
2022-12-31T23:13:50.841Z,100647.88
2022-12-31T23:16:37.413Z,100637.84
2022-12-31T23:19:23.493Z,100649.03
2022-12-31T23:22:08.242Z,100648.88
2022-12-31T23:24:34.625Z,100660.25
2022-12-31T23:27:00.934Z,100654.63
2022-12-31T23:29:27.491Z,100652.78
2022-12-31T23:31:54.224Z,100647.25
2022-12-31T23:34:20.900Z,100654.97
2022-12-31T23:36:47.208Z,100647.44
2022-12-31T23:39:13.577Z,100649.03
2022-12-31T23:41:40.328Z,100660.53
2022-12-31T23:44:06.763Z,100662.06
2022-12-31T23:46:33.192Z,100661.28
2022-12-31T23:48:59.645Z,100658.31
2022-12-31T23:51:25.956Z,100673.97
2022-12-31T23:53:52.326Z,100677.41
2022-12-31T23:56:23.740Z,100679.97
2022-12-31T23:58:55.215Z,100670.94
